Time;durP1;ratioP1;P1;durP2;ratioP2;P2;SDS_P1;SDS_P2;PMS_P1;PMS_P2;Temp;Humidity;BMP_temperature;BMP_pressure;BME280_temperature;BME280_humidity;BME280_pressure;Samples;Min_cycle;Max_cycle;Signal;HPM_P1;HPM_P2
2021/04/20 00:01:09;;;;;;;37.33;21.52;;;8.20;99.90;;;;;;5009779;28;20061;-85
2021/04/20 00:03:36;;;;;;;34.85;20.70;;;8.10;99.90;;;;;;5010628;28;20073;-85
2021/04/20 00:06:04;;;;;;;35.92;21.00;;;8.10;99.90;;;;;;5009520;28;20160;-85
2021/04/20 00:08:30;;;;;;;36.55;20.23;;;8.00;99.90;;;;;;5007152;28;20132;-85
2021/04/20 00:10:56;;;;;;;36.22;20.98;;;8.00;99.90;;;;;;5027293;28;20128;-86
2021/04/20 00:13:23;;;;;;;37.95;22.08;;;8.00;99.90;;;;;;5009011;28;20836;-85
2021/04/20 00:15:51;;;;;;;38.83;21.42;;;7.90;99.90;;;;;;5002329;28;20129;-85
2021/04/20 00:18:18;;;;;;;37.75;20.58;;;7.90;99.90;;;;;;5009676;28;20056;-85
2021/04/20 00:20:44;;;;;;;34.95;20.80;;;7.90;99.90;;;;;;5023767;28;20068;-85
2021/04/20 00:23:10;;;;;;;36.40;21.30;;;7.80;99.90;;;;;;5010985;28;20077;-85
2021/04/20 00:25:37;;;;;;;33.90;21.25;;;7.80;99.90;;;;;;5002412;28;20053;-85
2021/04/20 00:28:03;;;;;;;38.50;22.25;;;7.80;99.90;;;;;;5006037;28;20101;-86
2021/04/20 00:30:29;;;;;;;39.35;22.10;;;7.80;99.90;;;;;;5008050;28;20561;-85
2021/04/20 00:32:56;;;;;;;37.13;21.33;;;7.70;99.90;;;;;;5005672;28;20050;-85
2021/04/20 00:35:22;;;;;;;38.88;21.70;;;7.70;99.90;;;;;;5010191;28;20046;-86
2021/04/20 00:37:49;;;;;;;40.55;21.90;;;7.70;99.90;;;;;;5006220;28;20049;-85
2021/04/20 00:40:17;;;;;;;41.95;23.17;;;7.60;99.90;;;;;;5007870;28;20438;-86
2021/04/20 00:42:53;;;;;;;39.90;22.23;;;7.60;99.90;;;;;;5022079;28;20418;-85
2021/04/20 00:45:32;;;;;;;40.83;20.88;;;7.60;99.90;;;;;;5028350;28;20540;-85
2021/04/20 00:48:00;;;;;;;39.45;22.58;;;7.60;99.90;;;;;;5009311;28;20098;-84
2021/04/20 00:50:30;;;;;;;36.60;20.58;;;7.50;99.90;;;;;;5011115;28;20357;-85
2021/04/20 00:52:56;;;;;;;40.58;21.83;;;7.50;99.90;;;;;;5007924;28;20485;-85
2021/04/20 00:55:23;;;;;;;42.45;22.48;;;7.50;99.90;;;;;;5007087;28;20065;-85
2021/04/20 00:57:49;;;;;;;35.60;21.35;;;7.40;99.90;;;;;;5008007;28;20049;-85
2021/04/20 01:00:22;;;;;;;35.45;21.55;;;7.40;99.90;;;;;;5010588;28;20109;-86
2021/04/20 01:02:49;;;;;;;41.28;23.02;;;7.40;99.90;;;;;;5011037;28;20042;-85
2021/04/20 01:05:19;;;;;;;35.65;21.42;;;7.30;99.90;;;;;;5023119;28;20053;-85
2021/04/20 01:07:46;;;;;;;39.50;22.35;;;7.30;99.90;;;;;;5008274;28;20468;-85
2021/04/20 01:10:13;;;;;;;41.03;21.15;;;7.30;99.90;;;;;;5006844;28;20057;-85
2021/04/20 01:12:41;;;;;;;39.55;21.77;;;7.30;99.90;;;;;;5010221;28;20468;-85
2021/04/20 01:15:11;;;;;;;38.22;21.52;;;7.20;99.90;;;;;;5007283;28;20068;-85
2021/04/20 01:17:37;;;;;;;40.03;23.15;;;7.20;99.90;;;;;;5008621;28;20042;-85
2021/04/20 01:20:09;;;;;;;39.45;21.75;;;7.20;99.90;;;;;;5025424;28;20029;-86
2021/04/20 01:22:39;;;;;;;;;;;7.20;99.90;;;;;;5008451;28;20042;-86
2021/04/20 01:25:07;;;;;;;41.90;23.58;;;7.20;99.90;;;;;;5026436;28;19957;-85
2021/04/20 01:27:35;;;;;;;42.10;23.40;;;7.10;99.90;;;;;;5010406;28;20049;-85
2021/04/20 01:30:04;;;;;;;42.53;24.15;;;7.20;99.90;;;;;;5008309;28;20057;-86
2021/04/20 01:32:31;;;;;;;38.67;22.98;;;7.20;99.90;;;;;;5007981;28;20462;-85
2021/04/20 01:34:57;;;;;;;40.28;23.15;;;7.20;99.90;;;;;;5024192;28;20058;-85
2021/04/20 01:37:24;;;;;;;41.45;23.27;;;7.10;99.90;;;;;;5021934;28;20030;-85
2021/04/20 01:39:50;;;;;;;39.80;22.48;;;7.10;99.90;;;;;;5005759;28;20077;-85
2021/04/20 01:42:17;;;;;;;46.17;24.05;;;7.10;99.90;;;;;;5009816;28;20056;-85
2021/04/20 01:44:44;;;;;;;46.72;24.70;;;7.00;99.90;;;;;;5011155;28;20054;-85
2021/04/20 01:47:11;;;;;;;44.85;24.45;;;7.00;99.90;;;;;;5009090;28;20073;-85
2021/04/20 01:49:39;;;;;;;38.90;22.98;;;7.00;99.90;;;;;;5024591;28;20053;-85
2021/04/20 01:52:05;;;;;;;43.97;24.98;;;7.00;99.90;;;;;;5009382;28;20062;-85
2021/04/20 01:54:32;;;;;;;40.65;22.90;;;7.00;99.90;;;;;;5023961;28;20077;-86
2021/04/20 01:57:00;;;;;;;44.85;24.40;;;7.00;99.90;;;;;;5025983;28;20561;-86
2021/04/20 01:59:27;;;;;;;45.00;23.48;;;7.00;99.90;;;;;;5003124;28;20098;-86
2021/04/20 02:01:54;;;;;;;41.95;24.02;;;7.00;99.90;;;;;;5003931;28;20449;-83
2021/04/20 02:04:21;;;;;;;44.67;24.90;;;7.00;99.90;;;;;;5023637;28;20132;-85
2021/04/20 02:06:47;;;;;;;47.90;24.23;;;6.90;99.90;;;;;;5010857;28;20053;-85
2021/04/20 02:09:14;;;;;;;42.92;24.45;;;6.90;99.90;;;;;;5000567;28;20125;-85
2021/04/20 02:11:40;;;;;;;45.40;23.63;;;6.90;99.90;;;;;;5003184;28;20132;-85
2021/04/20 02:14:07;;;;;;;47.17;23.65;;;6.90;99.90;;;;;;5005451;28;20068;-86
2021/04/20 02:16:34;;;;;;;45.40;24.45;;;6.90;99.90;;;;;;5001301;28;20103;-85
2021/04/20 02:19:07;;;;;;;44.72;24.67;;;6.80;99.90;;;;;;5018341;28;20064;-85
2021/04/20 02:21:36;;;;;;;39.92;22.92;;;6.80;99.90;;;;;;5023917;28;20610;-85
2021/04/20 02:24:03;;;;;;;44.63;24.90;;;6.80;99.90;;;;;;5024676;28;20136;-85
2021/04/20 02:26:37;;;;;;;45.67;23.15;;;6.70;99.90;;;;;;5007606;28;20054;-86
2021/04/20 02:29:06;;;;;;;44.90;23.80;;;6.70;99.90;;;;;;5003810;28;20054;-85
2021/04/20 02:31:34;;;;;;;44.08;24.85;;;6.70;99.90;;;;;;5004733;28;20120;-85
2021/04/20 02:34:04;;;;;;;44.80;23.95;;;6.60;99.90;;;;;;5017856;28;20125;-84
2021/04/20 02:36:34;;;;;;;43.42;24.30;;;6.60;99.90;;;;;;5026227;28;20046;-83
2021/04/20 02:39:01;;;;;;;47.20;25.20;;;6.60;99.90;;;;;;5005480;28;20104;-83
2021/04/20 02:41:29;;;;;;;42.65;23.33;;;6.60;99.90;;;;;;5010397;28;20049;-84
2021/04/20 02:43:55;;;;;;;42.97;23.10;;;6.60;99.90;;;;;;5006737;28;20069;-84
2021/04/20 02:46:22;;;;;;;43.50;23.45;;;6.60;99.90;;;;;;5001941;28;20418;-84
2021/04/20 02:48:49;;;;;;;46.28;24.52;;;6.60;99.90;;;;;;5005831;28;20049;-84
2021/04/20 02:51:17;;;;;;;44.58;23.65;;;6.60;99.90;;;;;;5004006;28;20145;-84
2021/04/20 02:53:44;;;;;;;43.53;23.98;;;6.60;99.90;;;;;;5008373;28;20080;-84
2021/04/20 02:56:15;;;;;;;41.58;23.85;;;6.50;99.90;;;;;;5004028;28;20056;-84
2021/04/20 02:58:44;;;;;;;46.42;24.50;;;6.50;99.90;;;;;;5006734;28;20053;-84
2021/04/20 03:01:20;;;;;;;45.30;24.92;;;6.50;99.90;;;;;;5007697;28;20069;-85
2021/04/20 03:03:47;;;;;;;46.63;23.98;;;6.50;99.90;;;;;;5001072;28;20074;-85
2021/04/20 03:06:15;;;;;;;48.05;23.60;;;6.50;99.90;;;;;;5007425;28;20070;-84
2021/04/20 03:08:47;;;;;;;45.70;24.35;;;6.50;99.90;;;;;;5021686;28;20500;-85
2021/04/20 03:11:16;;;;;;;41.92;23.73;;;6.40;99.90;;;;;;5002260;28;20160;-85
2021/04/20 03:13:44;;;;;;;45.10;23.63;;;6.40;99.90;;;;;;5006640;28;20142;-84
2021/04/20 03:16:25;;;;;;;41.88;23.73;;;6.40;99.90;;;;;;5007013;28;20054;-84
2021/04/20 03:18:55;;;;;;;44.50;24.20;;;6.30;99.90;;;;;;5005252;28;20462;-85
2021/04/20 03:21:23;;;;;;;46.30;24.42;;;6.30;99.90;;;;;;5027301;28;20049;-84
2021/04/20 03:23:54;;;;;;;46.80;24.52;;;6.30;99.90;;;;;;5007498;28;20068;-84
2021/04/20 03:26:23;;;;;;;44.20;23.98;;;6.20;99.90;;;;;;5010059;28;20062;-85
2021/04/20 03:28:55;;;;;;;45.72;24.13;;;6.20;99.90;;;;;;5022660;28;20068;-85
2021/04/20 03:31:21;;;;;;;46.83;24.48;;;6.20;99.90;;;;;;5008918;28;20061;-84
2021/04/20 03:33:54;;;;;;;48.70;23.80;;;6.20;99.90;;;;;;5008889;28;20050;-85
2021/04/20 03:36:25;;;;;;;50.42;24.50;;;6.10;99.90;;;;;;5007595;28;20169;-85
2021/04/20 03:39:06;;;;;;;46.65;24.67;;;6.10;99.90;;;;;;5006390;28;20512;-85
2021/04/20 03:41:39;;;;;;;43.42;24.02;;;6.00;99.90;;;;;;5010158;28;20069;-84
2021/04/20 03:44:11;;;;;;;51.33;24.75;;;6.00;99.90;;;;;;5007511;28;20113;-84
2021/04/20 03:46:43;;;;;;;51.78;25.45;;;6.00;99.90;;;;;;5009583;28;20113;-84
2021/04/20 03:49:22;;;;;;;44.30;23.50;;;6.00;99.90;;;;;;5003371;28;20072;-84
2021/04/20 03:51:53;;;;;;;44.65;22.88;;;5.90;99.90;;;;;;5023500;28;20050;-85
2021/04/20 03:54:22;;;;;;;43.92;23.77;;;5.90;99.90;;;;;;5005577;28;20073;-85
2021/04/20 03:56:51;;;;;;;46.05;24.63;;;5.90;99.90;;;;;;5015165;28;20058;-85
2021/04/20 03:59:19;;;;;;;44.63;24.63;;;5.90;99.90;;;;;;5012052;28;20456;-85
2021/04/20 04:01:50;;;;;;;43.60;24.42;;;5.80;99.90;;;;;;5026339;28;20140;-85
2021/04/20 04:04:21;;;;;;;45.70;23.02;;;5.80;99.90;;;;;;5026853;28;20050;-85
2021/04/20 04:06:48;;;;;;;44.28;23.83;;;5.80;99.90;;;;;;5026409;28;20076;-85
2021/04/20 04:09:18;;;;;;;49.45;25.63;;;5.80;99.90;;;;;;5007326;28;20133;-86
2021/04/20 04:11:57;;;;;;;39.65;22.20;;;5.80;99.90;;;;;;5004510;28;20054;-85
2021/04/20 04:14:30;;;;;;;45.63;24.23;;;5.80;99.90;;;;;;5007748;28;20053;-86
2021/04/20 04:17:00;;;;;;;50.43;25.50;;;5.70;99.90;;;;;;5011841;28;20069;-85
2021/04/20 04:19:28;;;;;;;50.40;25.70;;;5.70;99.90;;;;;;5026198;28;20034;-85
2021/04/20 04:22:03;;;;;;;54.70;26.83;;;5.70;99.90;;;;;;5011523;28;20136;-86
2021/04/20 04:24:36;;;;;;;47.97;26.02;;;5.70;99.90;;;;;;5009522;28;20149;-85
2021/04/20 04:27:05;;;;;;;53.63;26.50;;;5.70;99.90;;;;;;5005672;28;20053;-86
2021/04/20 04:29:33;;;;;;;52.55;26.65;;;5.60;99.90;;;;;;5004794;28;20073;-85
2021/04/20 04:32:00;;;;;;;50.30;25.50;;;5.60;99.90;;;;;;5026531;28;20061;-86
2021/04/20 04:34:28;;;;;;;53.90;28.80;;;5.60;99.90;;;;;;5011495;28;20288;-85
2021/04/20 04:36:55;;;;;;;57.10;28.83;;;5.60;99.90;;;;;;5008398;28;20046;-85
2021/04/20 04:39:21;;;;;;;55.53;28.95;;;5.60;99.90;;;;;;5007601;28;20072;-85
2021/04/20 04:41:49;;;;;;;57.10;28.05;;;5.60;99.90;;;;;;5005258;28;20078;-85
2021/04/20 04:44:15;;;;;;;50.13;26.88;;;5.60;99.90;;;;;;5020293;28;20053;-83
2021/04/20 04:46:43;;;;;;;52.47;27.63;;;5.60;99.90;;;;;;5003778;28;20050;-83
2021/04/20 04:49:11;;;;;;;60.85;27.23;;;5.60;99.90;;;;;;5004607;28;20058;-83
2021/04/20 04:51:39;;;;;;;51.75;25.63;;;5.60;99.90;;;;;;5005298;28;20053;-84
2021/04/20 04:54:10;;;;;;;55.85;26.90;;;5.60;99.90;;;;;;5020428;28;20069;-84
2021/04/20 04:56:40;;;;;;;57.67;26.25;;;5.60;99.90;;;;;;5021912;28;20053;-84
2021/04/20 04:59:08;;;;;;;52.88;26.02;;;5.70;99.90;;;;;;5004124;28;20112;-84
2021/04/20 05:01:37;;;;;;;47.88;25.73;;;5.70;99.90;;;;;;5008006;28;20061;-84
2021/04/20 05:04:10;;;;;;;49.38;25.27;;;5.70;99.90;;;;;;5007415;28;20060;-85
2021/04/20 05:06:48;;;;;;;49.97;25.45;;;5.70;99.90;;;;;;5006682;28;20050;-85
2021/04/20 05:09:20;;;;;;;48.92;24.60;;;5.80;99.90;;;;;;5009075;28;20125;-85
2021/04/20 05:11:47;;;;;;;48.72;24.65;;;5.80;99.90;;;;;;5029137;28;20049;-86
2021/04/20 05:14:16;;;;;;;49.33;23.83;;;5.80;99.90;;;;;;5021390;28;20053;-86
2021/04/20 05:16:47;;;;;;;44.78;23.55;;;5.90;99.90;;;;;;5005839;28;20085;-85
2021/04/20 05:19:34;;;;;;;43.72;23.85;;;5.90;99.90;;;;;;5018671;28;20086;-85
2021/04/20 05:22:01;;;;;;;47.78;24.42;;;6.00;99.90;;;;;;5023400;28;20144;-86
2021/04/20 05:24:28;;;;;;;48.35;25.63;;;6.00;99.90;;;;;;5004511;28;20053;-86
2021/04/20 05:26:55;;;;;;;49.05;25.17;;;6.10;99.90;;;;;;5002417;28;20472;-86
2021/04/20 05:29:22;;;;;;;50.00;25.17;;;6.10;99.90;;;;;;5000072;28;20057;-86
2021/04/20 05:31:50;;;;;;;49.15;25.70;;;6.20;99.90;;;;;;5002586;28;20089;-86
2021/04/20 05:34:19;;;;;;;50.58;25.63;;;6.20;99.90;;;;;;5005818;28;20137;-86
2021/04/20 05:36:47;;;;;;;50.25;25.67;;;6.30;99.90;;;;;;5015652;28;20064;-85
2021/04/20 05:39:16;;;;;;;56.95;27.95;;;6.50;99.90;;;;;;5008352;28;20109;-85
2021/04/20 05:41:42;;;;;;;50.53;26.50;;;6.50;99.90;;;;;;5022165;28;20050;-87
2021/04/20 05:44:12;;;;;;;51.97;26.23;;;6.60;99.90;;;;;;5008272;28;20113;-85
2021/04/20 05:46:42;;;;;;;47.33;25.17;;;6.80;99.90;;;;;;5015348;28;20089;-85
2021/04/20 05:49:09;;;;;;;45.08;24.73;;;6.90;99.90;;;;;;5004816;28;20064;-85
2021/04/20 05:51:37;;;;;;;54.00;26.88;;;7.00;99.90;;;;;;5010920;28;20068;-85
2021/04/20 05:54:04;;;;;;;54.13;28.15;;;7.10;99.90;;;;;;5008467;28;20112;-86
2021/04/20 05:56:30;;;;;;;50.08;27.38;;;7.30;99.90;;;;;;5018130;28;20050;-85
2021/04/20 05:58:59;;;;;;;46.47;25.92;;;7.40;99.90;;;;;;5005340;28;20061;-85
2021/04/20 06:01:27;;;;;;;46.50;26.30;;;7.60;99.90;;;;;;5006446;28;20060;-85
2021/04/20 06:04:06;;;;;;;44.88;25.73;;;7.80;99.90;;;;;;5016064;28;20057;-85
2021/04/20 06:06:34;;;;;;;48.92;26.42;;;8.00;99.90;;;;;;5020531;28;20060;-85
2021/04/20 06:09:02;;;;;;;48.47;24.88;;;8.30;99.90;;;;;;5020094;28;20061;-86
2021/04/20 06:11:29;;;;;;;39.28;22.88;;;8.70;99.90;;;;;;5021638;28;20126;-85
2021/04/20 06:13:56;;;;;;;41.22;24.48;;;9.20;99.90;;;;;;5002041;28;20175;-85
2021/04/20 06:16:22;;;;;;;43.85;23.85;;;9.60;99.90;;;;;;5000863;28;20057;-85
2021/04/20 06:18:51;;;;;;;40.38;23.98;;;10.00;99.90;;;;;;4996157;28;20054;-85
2021/04/20 06:21:18;;;;;;;44.88;25.98;;;10.40;99.90;;;;;;5006458;28;20101;-85
2021/04/20 06:23:45;;;;;;;44.47;25.38;;;10.70;99.90;;;;;;5005645;28;20046;-85
2021/04/20 06:26:12;;;;;;;42.47;24.67;;;11.00;99.90;;;;;;5009710;28;20136;-86
2021/04/20 06:28:39;;;;;;;42.78;24.88;;;11.30;99.90;;;;;;5002337;28;20069;-86
2021/04/20 06:31:07;;;;;;;40.08;25.08;;;11.50;99.90;;;;;;5005706;28;20552;-85
2021/04/20 06:33:36;;;;;;;37.97;23.92;;;11.80;99.90;;;;;;5020365;28;20136;-85
2021/04/20 06:36:13;;;;;;;38.47;24.63;;;12.10;99.90;;;;;;5019457;28;20074;-85
2021/04/20 06:38:40;;;;;;;40.83;25.75;;;12.40;99.90;;;;;;5002703;28;20465;-85
2021/04/20 06:41:09;;;;;;;40.25;24.85;;;12.60;99.90;;;;;;5005183;28;21627;-85
2021/04/20 06:44:23;;;;;;;41.63;24.95;;;12.70;99.90;;;;;;5006343;28;20045;-86
2021/04/20 06:46:59;;;;;;;35.67;22.75;;;12.70;99.90;;;;;;4994759;28;20593;-85
2021/04/20 06:49:43;;;;;;;38.95;23.75;;;12.60;99.90;;;;;;5020641;28;20084;-85
2021/04/20 06:52:24;;;;;;;37.40;23.48;;;12.60;99.90;;;;;;5004810;28;20077;-86
2021/04/20 06:55:05;;;;;;;37.50;23.30;;;12.60;99.90;;;;;;5004995;28;20065;-86
2021/04/20 06:58:00;;;;;;;37.72;23.85;;;12.60;99.90;;;;;;5007123;28;20257;-86
2021/04/20 07:00:28;;;;;;;38.45;22.85;;;12.50;99.90;;;;;;5003720;28;20061;-85
2021/04/20 07:03:10;;;;;;;42.50;25.15;;;12.50;99.90;;;;;;5004568;28;20054;-84
2021/04/20 07:05:39;;;;;;;38.45;23.33;;;12.50;99.90;;;;;;5005263;28;20088;-85
2021/04/20 07:08:22;;;;;;;39.03;25.42;;;12.60;99.90;;;;;;5003593;28;20132;-85
2021/04/20 07:10:49;;;;;;;37.83;24.35;;;12.60;99.90;;;;;;5017811;28;20050;-85
2021/04/20 07:13:28;;;;;;;40.55;24.20;;;12.70;99.90;;;;;;5004074;28;20425;-85
2021/04/20 07:16:19;;;;;;;38.10;23.63;;;12.80;99.90;;;;;;5005718;28;20050;-85
2021/04/20 07:19:08;;;;;;;39.38;22.92;;;12.90;99.90;;;;;;4993456;28;20060;-85
2021/04/20 07:22:05;;;;;;;38.25;24.00;;;12.90;99.90;;;;;;5026352;28;20048;-84
2021/04/20 07:25:04;;;;;;;36.50;22.33;;;13.00;99.90;;;;;;5022650;28;20042;-85
2021/04/20 07:27:51;;;;;;;39.83;23.85;;;13.10;99.90;;;;;;5022156;28;20037;-85
2021/04/20 07:30:51;;;;;;;40.38;23.60;;;13.10;99.90;;;;;;5023876;28;20058;-85
2021/04/20 07:33:47;;;;;;;33.60;22.45;;;13.30;99.90;;;;;;5005525;28;20125;-84
2021/04/20 07:36:36;;;;;;;35.83;22.98;;;13.40;99.90;;;;;;5006057;28;20053;-84
2021/04/20 07:39:09;;;;;;;39.47;23.75;;;13.60;99.90;;;;;;5008583;28;20078;-85
2021/04/20 07:41:46;;;;;;;35.20;21.63;;;13.70;99.90;;;;;;5009170;28;20132;-85
2021/04/20 07:44:24;;;;;;;37.72;23.10;;;13.90;99.90;;;;;;5003187;28;20058;-85
2021/04/20 07:46:58;;;;;;;35.05;22.63;;;14.00;99.90;;;;;;5003415;28;20066;-86
2021/04/20 07:50:02;;;;;;;38.72;25.02;;;14.10;99.90;;;;;;5007814;28;20498;-85
2021/04/20 07:53:00;;;;;;;34.97;23.80;;;14.30;99.90;;;;;;5002599;28;20107;-85
2021/04/20 07:55:35;;;;;;;34.20;22.17;;;14.40;99.90;;;;;;5018488;28;20089;-87
2021/04/20 07:58:16;;;;;;;40.47;23.00;;;14.50;99.90;;;;;;5002865;28;20121;-86
2021/04/20 08:00:51;;;;;;;36.45;21.98;;;14.50;99.90;;;;;;5018092;28;20041;-86
2021/04/20 08:03:33;;;;;;;35.40;22.63;;;14.60;99.90;;;;;;4999820;28;20101;-86
2021/04/20 08:06:14;;;;;;;34.70;21.85;;;14.60;99.90;;;;;;5004184;28;20080;-86
2021/04/20 08:08:50;;;;;;;32.95;21.08;;;14.70;99.90;;;;;;5000605;28;20038;-85
2021/04/20 08:11:42;;;;;;;32.08;21.90;;;14.90;99.90;;;;;;5019634;28;20133;-85
2021/04/20 08:14:42;;;;;;;32.47;21.77;;;15.10;99.90;;;;;;5019257;28;20053;-85
2021/04/20 08:17:13;;;;;;;31.65;21.60;;;15.20;99.90;;;;;;5006396;28;20088;-86
2021/04/20 08:19:46;;;;;;;31.83;20.15;;;15.30;99.90;;;;;;5000452;28;20052;-85
2021/04/20 08:22:15;;;;;;;33.05;20.83;;;15.40;99.90;;;;;;5019500;28;20100;-86
2021/04/20 08:24:51;;;;;;;31.42;21.52;;;15.50;99.90;;;;;;5009072;28;20054;-86
2021/04/20 08:27:28;;;;;;;33.00;21.48;;;15.60;99.90;;;;;;5006263;28;20065;-86
2021/04/20 08:30:00;;;;;;;30.40;21.02;;;15.80;99.90;;;;;;5014538;28;20045;-85
2021/04/20 08:32:29;;;;;;;28.58;20.35;;;15.90;99.90;;;;;;5007094;28;20046;-86
2021/04/20 08:35:01;;;;;;;32.50;22.70;;;15.90;99.90;;;;;;4999338;28;20058;-86
2021/04/20 08:37:42;;;;;;;29.85;20.80;;;16.00;99.90;;;;;;4999441;28;20049;-86
2021/04/20 08:40:45;;;;;;;33.70;21.60;;;16.00;99.90;;;;;;5019099;28;20431;-86
2021/04/20 08:43:18;;;;;;;31.65;20.92;;;16.10;99.90;;;;;;5023179;28;20571;-86
2021/04/20 08:45:58;;;;;;;29.83;21.13;;;16.20;99.90;;;;;;5022935;28;20471;-85
2021/04/20 08:48:35;;;;;;;29.17;19.90;;;16.20;99.90;;;;;;5006283;28;20053;-85
2021/04/20 08:51:13;;;;;;;30.05;19.10;;;16.30;99.90;;;;;;5011217;28;20067;-85
2021/04/20 08:53:59;;;;;;;29.80;18.88;;;16.50;99.90;;;;;;5007277;28;20073;-86
2021/04/20 08:57:07;;;;;;;25.98;18.48;;;16.70;99.90;;;;;;4997355;28;20049;-86
2021/04/20 09:00:08;;;;;;;24.58;16.70;;;16.80;96.40;;;;;;4986513;28;20129;-86
2021/04/20 09:02:40;;;;;;;25.88;17.70;;;16.90;95.70;;;;;;5008554;28;20048;-86
2021/04/20 09:05:35;;;;;;;26.50;16.88;;;17.00;94.50;;;;;;5028463;28;20049;-87
2021/04/20 09:08:23;;;;;;;21.70;15.75;;;17.00;93.70;;;;;;5016663;28;20112;-87
2021/04/20 09:11:04;;;;;;;27.33;16.17;;;17.10;93.20;;;;;;5014517;28;20052;-87
2021/04/20 09:13:44;;;;;;;25.10;17.27;;;17.40;92.80;;;;;;5011267;28;20029;-87
2021/04/20 09:16:20;;;;;;;26.38;16.48;;;17.50;92.50;;;;;;5036807;28;20090;-87
2021/04/20 09:18:47;;;;;;;26.75;16.70;;;17.50;91.10;;;;;;5021931;28;20042;-87
2021/04/20 09:21:28;;;;;;;24.88;16.38;;;17.60;91.00;;;;;;5017734;28;20084;-87
2021/04/20 09:23:54;;;;;;;22.55;15.82;;;17.60;91.30;;;;;;5036403;28;20064;-87
2021/04/20 09:26:29;;;;;;;23.52;16.90;;;17.70;91.40;;;;;;5025314;28;20425;-88
2021/04/20 09:29:17;;;;;;;22.65;15.88;;;17.70;90.70;;;;;;5018592;28;20408;-85
2021/04/20 09:32:06;;;;;;;22.13;15.57;;;17.90;88.40;;;;;;5008081;28;20165;-86
2021/04/20 09:34:39;;;;;;;23.63;16.38;;;18.10;88.20;;;;;;5021911;28;20046;-85
2021/04/20 09:37:06;;;;;;;23.23;16.77;;;18.10;84.90;;;;;;5018368;28;20054;-84
2021/04/20 09:39:40;;;;;;;25.65;17.95;;;18.20;81.60;;;;;;5004304;28;20061;-85
2021/04/20 09:42:09;;;;;;;24.48;17.83;;;18.20;85.90;;;;;;5003484;28;20100;-86
2021/04/20 09:45:05;;;;;;;24.88;17.70;;;18.20;85.40;;;;;;5006014;28;20494;-85
2021/04/20 09:47:43;;;;;;;24.30;16.60;;;18.30;84.90;;;;;;5000258;28;20084;-86
2021/04/20 09:50:19;;;;;;;23.98;16.75;;;18.30;83.90;;;;;;4998921;28;20056;-86
2021/04/20 09:53:31;;;;;;;23.58;15.10;;;18.30;83.50;;;;;;4994879;28;20057;-86
2021/04/20 09:56:31;;;;;;;23.83;17.35;;;18.40;82.30;;;;;;4966444;28;20074;-86
2021/04/20 09:59:01;;;;;;;26.00;17.77;;;18.50;84.30;;;;;;5022284;28;20045;-85
2021/04/20 10:01:56;;;;;;;26.15;18.17;;;18.60;85.00;;;;;;5023749;28;20405;-86
2021/04/20 10:04:37;;;;;;;24.95;17.77;;;18.80;83.80;;;;;;5022355;28;20026;-86
2021/04/20 10:07:24;;;;;;;24.52;17.52;;;19.10;84.80;;;;;;5008837;28;20153;-85
2021/04/20 10:10:03;;;;;;;23.02;17.88;;;19.20;80.00;;;;;;5002666;28;20053;-85
2021/04/20 10:12:35;;;;;;;25.50;18.10;;;19.20;80.70;;;;;;5021372;28;20045;-85
2021/04/20 10:15:29;;;;;;;24.85;16.77;;;19.20;80.60;;;;;;5017916;28;20058;-85
2021/04/20 10:18:25;;;;;;;24.77;18.35;;;19.30;79.80;;;;;;4996473;28;20159;-86
2021/04/20 10:21:07;;;;;;;25.20;18.45;;;19.40;79.50;;;;;;5021816;28;20098;-86
2021/04/20 10:24:02;;;;;;;26.15;18.40;;;19.60;77.60;;;;;;5005532;28;20048;-85
2021/04/20 10:26:58;;;;;;;27.40;18.45;;;19.60;79.40;;;;;;4989031;28;20077;-85
2021/04/20 10:29:32;;;;;;;25.45;16.02;;;19.80;78.80;;;;;;5005045;28;20409;-85
2021/04/20 10:32:22;;;;;;;25.25;15.82;;;19.90;76.00;;;;;;5005593;28;20060;-85
2021/04/20 10:34:51;;;;;;;21.65;15.18;;;20.00;73.60;;;;;;5003175;28;20042;-85
2021/04/20 10:37:40;;;;;;;23.23;16.10;;;20.20;69.90;;;;;;5009750;28;20045;-85
2021/04/20 10:40:15;;;;;;;22.65;17.13;;;20.10;69.70;;;;;;5002630;28;20110;-85
2021/04/20 10:42:47;;;;;;;20.92;14.88;;;20.00;73.20;;;;;;5019461;28;20158;-84
2021/04/20 10:45:14;;;;;;;20.85;16.30;;;20.10;69.50;;;;;;5007153;28;20116;-86
2021/04/20 10:47:42;;;;;;;24.60;16.38;;;20.20;68.20;;;;;;5019932;28;20050;-84
2021/04/20 10:50:28;;;;;;;22.73;16.05;;;20.30;68.30;;;;;;5003660;28;20316;-85
2021/04/20 10:53:21;;;;;;;19.85;14.68;;;20.40;69.40;;;;;;5005337;28;20049;-84
2021/04/20 10:55:51;;;;;;;18.00;13.27;;;20.40;66.30;;;;;;4996987;28;20482;-85
2021/04/20 10:58:24;;;;;;;19.13;14.15;;;20.50;64.70;;;;;;5006530;28;20116;-85
2021/04/20 11:00:52;;;;;;;17.60;13.57;;;20.60;65.10;;;;;;5004243;28;20114;-85
2021/04/20 11:03:28;;;;;;;19.20;14.73;;;20.80;63.80;;;;;;5009978;28;20037;-85
2021/04/20 11:05:55;;;;;;;17.05;13.18;;;20.90;65.10;;;;;;5009992;28;20034;-84
2021/04/20 11:08:36;;;;;;;16.95;13.05;;;21.10;63.60;;;;;;5024875;28;20101;-85
2021/04/20 11:11:04;;;;;;;17.92;13.20;;;21.20;60.20;;;;;;5008714;28;20036;-84
2021/04/20 11:13:38;;;;;;;15.52;12.13;;;21.10;59.60;;;;;;5010110;28;20053;-85
2021/04/20 11:16:07;;;;;;;;;;;20.80;57.00;;;;;;5024590;28;20054;-84
2021/04/20 11:18:36;;;;;;;14.30;10.15;;;20.30;58.10;;;;;;5007952;28;20016;-84
2021/04/20 11:21:10;;;;;;;13.45;10.30;;;20.10;56.70;;;;;;5005336;28;20046;-84
2021/04/20 11:24:04;;;;;;;16.17;11.43;;;20.00;57.70;;;;;;5023197;28;20066;-85
2021/04/20 11:26:35;;;;;;;18.15;13.48;;;20.40;62.50;;;;;;5012147;28;20113;-84
2021/04/20 11:29:08;;;;;;;18.20;13.90;;;21.00;65.10;;;;;;5006719;28;20422;-85
2021/04/20 11:31:39;;;;;;;20.60;14.63;;;21.70;64.30;;;;;;5024181;28;20053;-85
2021/04/20 11:34:24;;;;;;;16.55;13.02;;;22.30;61.50;;;;;;5006677;28;20043;-85
2021/04/20 11:36:58;;;;;;;16.88;13.77;;;22.90;56.10;;;;;;5023921;28;20064;-84
2021/04/20 11:39:30;;;;;;;15.55;13.40;;;23.00;59.20;;;;;;5000593;28;20053;-85
2021/04/20 11:42:04;;;;;;;21.05;13.65;;;23.20;57.20;;;;;;5007793;28;20557;-85
2021/04/20 11:44:39;;;;;;;13.95;11.77;;;23.40;56.70;;;;;;5022501;28;20038;-84
2021/04/20 11:47:07;;;;;;;16.58;12.23;;;23.50;53.80;;;;;;5023814;28;20060;-85
2021/04/20 11:49:37;;;;;;;14.68;12.27;;;23.40;53.60;;;;;;5004309;28;20054;-85
2021/04/20 11:52:14;;;;;;;15.93;12.50;;;23.20;53.60;;;;;;5007466;28;20104;-85
2021/04/20 11:54:42;;;;;;;14.77;12.30;;;23.10;53.90;;;;;;5001702;28;20045;-84
2021/04/20 11:57:10;;;;;;;22.13;13.35;;;22.80;53.80;;;;;;5023909;28;20140;-85
2021/04/20 11:59:37;;;;;;;15.68;12.23;;;22.70;53.60;;;;;;5007652;28;20125;-84
2021/04/20 12:02:08;;;;;;;14.75;12.68;;;22.80;53.90;;;;;;4999611;28;20050;-84
2021/04/20 12:04:46;;;;;;;16.48;13.20;;;22.80;54.70;;;;;;5007352;28;20045;-85
2021/04/20 12:07:22;;;;;;;19.45;13.18;;;23.10;54.20;;;;;;5009176;28;20485;-85
2021/04/20 12:09:54;;;;;;;17.75;12.60;;;23.10;54.30;;;;;;5005759;28;20413;-85
2021/04/20 12:12:32;;;;;;;18.55;13.30;;;23.20;55.50;;;;;;5008867;28;20100;-85
2021/04/20 12:15:02;;;;;;;17.98;13.48;;;23.60;53.40;;;;;;5005938;28;20042;-85
2021/04/20 12:17:31;;;;;;;14.25;11.95;;;23.60;53.00;;;;;;5008289;28;20101;-86
2021/04/20 12:20:03;;;;;;;15.38;11.43;;;23.40;50.40;;;;;;5006925;28;20482;-85
2021/04/20 12:22:30;;;;;;;13.88;11.07;;;23.00;50.70;;;;;;5002667;28;20054;-85
2021/04/20 12:24:58;;;;;;;15.70;12.00;;;22.60;52.40;;;;;;5007929;28;20058;-84
2021/04/20 12:27:26;;;;;;;16.13;13.20;;;22.30;54.60;;;;;;5004135;28;20448;-85
2021/04/20 12:29:54;;;;;;;16.90;12.43;;;22.10;53.30;;;;;;5006685;28;20065;-85
2021/04/20 12:32:34;;;;;;;17.48;14.05;;;21.90;54.10;;;;;;5006438;28;20065;-85
2021/04/20 12:35:00;;;;;;;19.58;13.95;;;21.70;55.90;;;;;;5004824;28;20054;-85
2021/04/20 12:37:30;;;;;;;19.60;14.82;;;21.70;56.10;;;;;;5019814;28;20077;-85
2021/04/20 12:40:16;;;;;;;20.52;13.43;;;21.60;56.10;;;;;;5016137;28;20057;-84
2021/04/20 12:42:48;;;;;;;22.25;16.52;;;21.50;55.80;;;;;;5001710;28;20509;-84
2021/04/20 12:45:20;;;;;;;24.40;16.67;;;21.30;57.20;;;;;;5003293;28;20058;-84
2021/04/20 12:47:48;;;;;;;26.83;18.85;;;21.10;58.70;;;;;;5019407;28;20069;-85
2021/04/20 12:50:21;;;;;;;26.25;19.85;;;21.00;59.50;;;;;;5005963;28;20060;-85
2021/04/20 12:52:49;;;;;;;26.50;18.80;;;20.90;60.50;;;;;;5007235;28;20061;-84
2021/04/20 12:55:25;;;;;;;27.92;19.88;;;20.90;60.00;;;;;;5026828;28;20153;-84
2021/04/20 12:57:53;;;;;;;32.15;20.98;;;21.10;61.60;;;;;;5004239;28;20133;-85
2021/04/20 13:00:25;;;;;;;31.00;20.67;;;22.00;61.10;;;;;;5005333;28;20136;-85
2021/04/20 13:02:55;;;;;;;28.02;20.33;;;23.10;56.70;;;;;;5019017;28;20042;-85
2021/04/20 13:05:25;;;;;;;27.38;20.70;;;23.90;55.50;;;;;;5022943;28;20069;-85